KCPR/CPR METAR and TAF weather

Enter ICAO airport designator
Station Type Date Time Source
KCPR METAR 2019/06/18 13:53 UTC NOAA

KCPR 181353Z 24009KT 10SM OVC095 13/12 A3010 RMK AO2 SLP151 T01280122


Station Type Date Time Source
KCPR Decoded METAR 2019/06/18 13:53 UTC NOAA

NATRONA COUNTY INTERNATIONAL AIRPORT , WY, United States (KCPR) 42-54N 106-28W 1621M
Jun 18, 2019 - 09:53 AM EDT / 2019.06.18 1353 UTC
Wind: from the WSW (240 degrees) at 10 MPH (9 KT):0
Visibility: 10 mile(s):0
Sky conditions: overcast
Temperature: 55.0 F (12.8 C)
Dew Point: 54.0 F (12.2 C)
Relative Humidity: 96%
Pressure (altimeter): 30.1 in. Hg (1019 hPa)
ob: KCPR 181353Z 24009KT 10SM OVC095 13/12 A3010 RMK AO2 SLP151 T01280122
cycle: 14

Station Type Date Time Source
KCPR TAF 2019/06/18 12:24 UTC NOAA

TAF KCPR 181121Z 1812/1912 VRB05KT P6SM BKN080
FM181800 VRB04KT P6SM SCT060 SCT100
FM182100 28008KT P6SM VCTS SCT060CB BKN100
FM190200 35008KT P6SM SCT060 BKN080
FM190500 36006KT P6SM VCSH BKN060
FM190900 35006KT P6SM SCT030 BKN050

Example: see airport list